createdAt,value
2023-05-21T00:00:10.882Z,14.70
2023-05-21T00:03:04.252Z,14.70
2023-05-21T00:05:55.684Z,14.50
2023-05-21T00:08:47.150Z,14.50
2023-05-21T00:11:38.528Z,14.40
2023-05-21T00:14:29.842Z,14.40
2023-05-21T00:17:21.556Z,14.50
2023-05-21T00:20:14.066Z,14.50
2023-05-21T00:23:05.525Z,14.50
2023-05-21T00:25:57.001Z,14.50
2023-05-21T00:28:48.370Z,14.50
2023-05-21T00:31:39.828Z,14.40
2023-05-21T00:34:31.177Z,14.40
2023-05-21T00:37:23.912Z,14.40
2023-05-21T00:40:15.610Z,14.40
2023-05-21T00:43:08.378Z,14.40
2023-05-21T00:46:02.507Z,14.50
2023-05-21T00:48:54.061Z,14.60
2023-05-21T00:51:45.386Z,14.50
2023-05-21T00:54:36.704Z,14.50
2023-05-21T00:57:28.772Z,14.50
2023-05-21T01:00:21.054Z,14.40
2023-05-21T01:03:14.030Z,14.40
2023-05-21T01:06:06.092Z,14.50
2023-05-21T01:08:58.147Z,14.50
2023-05-21T01:11:51.504Z,14.50
2023-05-21T01:14:44.066Z,14.50
2023-05-21T01:17:35.850Z,14.50
2023-05-21T01:20:28.202Z,14.40
2023-05-21T01:23:20.862Z,14.40
2023-05-21T01:26:13.262Z,14.40
2023-05-21T01:29:10.223Z,14.40
2023-05-21T01:32:05.206Z,14.40
2023-05-21T01:35:01.739Z,14.30
2023-05-21T01:37:57.498Z,14.40
2023-05-21T01:40:53.286Z,14.40
2023-05-21T01:43:47.676Z,14.30
2023-05-21T01:46:39.889Z,14.30
2023-05-21T01:49:32.304Z,14.40
2023-05-21T01:52:23.563Z,14.40
2023-05-21T01:55:14.915Z,14.40
2023-05-21T01:58:06.459Z,14.30
2023-05-21T02:01:03.049Z,14.20
2023-05-21T02:03:54.656Z,14.30
2023-05-21T02:06:46.254Z,14.20
2023-05-21T02:09:37.609Z,14.10
2023-05-21T02:12:30.349Z,14.00
2023-05-21T02:15:22.726Z,14.00
2023-05-21T02:18:16.858Z,14.10
2023-05-21T02:21:09.058Z,14.10
2023-05-21T02:24:00.306Z,14.10
2023-05-21T02:26:52.725Z,14.20
2023-05-21T02:29:44.674Z,14.20
2023-05-21T02:32:36.226Z,14.20
2023-05-21T02:35:28.151Z,14.20
2023-05-21T02:38:21.775Z,14.20
2023-05-21T02:41:13.607Z,14.20
2023-05-21T02:44:05.464Z,14.30
2023-05-21T02:46:56.771Z,14.20
2023-05-21T02:49:48.500Z,14.20
2023-05-21T02:52:41.621Z,14.20
2023-05-21T02:55:33.383Z,14.20
2023-05-21T02:58:25.802Z,14.20
2023-05-21T03:01:17.504Z,14.20
2023-05-21T03:04:09.384Z,14.20
2023-05-21T03:07:02.295Z,14.30
2023-05-21T03:09:54.781Z,14.20
2023-05-21T03:12:46.063Z,14.10
2023-05-21T03:15:39.583Z,14.10
2023-05-21T03:18:32.723Z,14.10
2023-05-21T03:21:23.805Z,14.00
2023-05-21T03:24:15.522Z,14.00
2023-05-21T03:27:07.650Z,14.00
2023-05-21T03:29:59.551Z,14.10
2023-05-21T03:32:51.552Z,14.10
2023-05-21T03:35:42.858Z,14.10
2023-05-21T03:38:35.963Z,14.10
2023-05-21T03:41:28.131Z,14.00
2023-05-21T03:44:21.043Z,14.10
2023-05-21T03:47:17.352Z,14.00
2023-05-21T03:50:12.532Z,14.00
2023-05-21T03:53:04.332Z,14.10
2023-05-21T03:55:55.910Z,14.00
2023-05-21T03:58:51.274Z,13.90
2023-05-21T04:01:43.865Z,13.90
2023-05-21T04:04:38.793Z,14.00
2023-05-21T04:07:31.459Z,14.00
2023-05-21T04:10:24.241Z,13.90
2023-05-21T04:13:15.998Z,14.00
2023-05-21T04:16:09.180Z,14.00
2023-05-21T04:19:01.077Z,13.90
2023-05-21T04:21:53.513Z,13.80
2023-05-21T04:24:46.446Z,13.80
2023-05-21T04:27:39.291Z,13.90
2023-05-21T04:30:31.956Z,13.90
2023-05-21T04:33:24.666Z,13.90
2023-05-21T04:36:17.498Z,14.00
2023-05-21T04:39:08.765Z,14.00
2023-05-21T04:42:02.353Z,14.00
2023-05-21T04:44:55.189Z,14.00
2023-05-21T04:47:46.739Z,14.00
2023-05-21T04:50:39.212Z,14.00
2023-05-21T04:53:31.259Z,13.90
2023-05-21T04:56:23.223Z,13.80
2023-05-21T04:59:14.810Z,13.80
2023-05-21T05:02:06.918Z,13.80
2023-05-21T05:04:59.981Z,13.80
2023-05-21T05:07:51.230Z,13.70
2023-05-21T05:10:42.919Z,13.70
2023-05-21T05:13:35.281Z,13.70
2023-05-21T05:16:26.837Z,13.70
2023-05-21T05:19:19.798Z,13.80
2023-05-21T05:22:13.410Z,13.80
2023-05-21T05:25:09.910Z,13.90
2023-05-21T05:28:01.483Z,13.90
2023-05-21T05:30:52.908Z,14.00
2023-05-21T05:33:46.000Z,14.10
2023-05-21T05:36:37.607Z,14.10
2023-05-21T05:39:32.176Z,14.20
2023-05-21T05:42:24.277Z,14.20
2023-05-21T05:45:15.662Z,14.20
2023-05-21T05:48:08.466Z,14.20
2023-05-21T05:51:02.795Z,14.20
2023-05-21T05:53:58.384Z,14.20
2023-05-21T05:56:49.892Z,14.30
2023-05-21T05:59:41.900Z,14.40
2023-05-21T06:02:34.967Z,14.30
2023-05-21T06:05:26.431Z,14.30
2023-05-21T06:08:17.790Z,14.40
2023-05-21T06:11:09.838Z,14.40
2023-05-21T06:14:02.118Z,14.40
2023-05-21T06:16:53.553Z,14.40
2023-05-21T06:22:25.697Z,14.60
2023-05-21T06:25:18.405Z,14.60
2023-05-21T06:28:09.754Z,14.60
2023-05-21T06:31:02.036Z,14.70
2023-05-21T06:33:55.349Z,14.70
2023-05-21T06:36:46.699Z,14.70
2023-05-21T06:39:38.841Z,14.60
2023-05-21T06:42:31.017Z,14.60
2023-05-21T06:45:40.441Z,14.60
2023-05-21T06:48:33.403Z,14.60
2023-05-21T06:51:24.786Z,14.70
2023-05-21T06:54:16.098Z,14.80
2023-05-21T06:57:07.921Z,14.90
2023-05-21T06:59:59.522Z,15.00
2023-05-21T07:02:50.978Z,15.10
2023-05-21T07:05:43.052Z,15.10
2023-05-21T07:08:34.506Z,15.20
2023-05-21T07:11:27.930Z,15.40
2023-05-21T07:14:20.056Z,15.50
2023-05-21T07:17:11.549Z,15.50
2023-05-21T07:20:07.931Z,15.50
2023-05-21T07:23:00.610Z,15.50
2023-05-21T07:25:52.573Z,15.60
2023-05-21T07:28:44.503Z,15.80
2023-05-21T07:31:36.336Z,15.90
2023-05-21T07:34:28.775Z,15.90
2023-05-21T07:37:23.465Z,16.00
2023-05-21T07:42:57.762Z,16.10
2023-05-21T07:45:50.738Z,16.10
2023-05-21T07:48:44.307Z,16.10
2023-05-21T07:51:36.473Z,16.10
2023-05-21T07:54:28.215Z,16.00
2023-05-21T07:59:58.807Z,16.20
2023-05-21T08:02:50.285Z,16.20
2023-05-21T08:08:22.130Z,16.10
2023-05-21T08:11:15.739Z,16.10
2023-05-21T08:14:07.848Z,16.10
2023-05-21T08:16:59.168Z,16.10
2023-05-21T08:19:51.376Z,16.10
2023-05-21T08:22:43.831Z,16.20
2023-05-21T08:25:35.693Z,16.30
2023-05-21T08:28:29.161Z,16.40
2023-05-21T08:31:21.838Z,16.50
2023-05-21T08:34:14.730Z,16.50
2023-05-21T08:37:07.944Z,16.60
2023-05-21T08:40:17.569Z,16.70
2023-05-21T08:43:10.702Z,16.70
2023-05-21T08:46:06.130Z,16.70
2023-05-21T08:49:00.365Z,16.60
2023-05-21T08:51:52.517Z,16.80
2023-05-21T08:54:45.963Z,16.70
2023-05-21T09:00:20.959Z,16.80
2023-05-21T09:03:14.289Z,17.00
2023-05-21T09:06:08.795Z,17.10
2023-05-21T09:09:03.154Z,17.20
2023-05-21T09:11:56.476Z,17.20
2023-05-21T09:14:52.358Z,17.30
2023-05-21T09:17:47.922Z,17.30
2023-05-21T09:20:45.659Z,17.20
2023-05-21T09:23:37.389Z,17.20
2023-05-21T09:26:28.825Z,17.30
2023-05-21T09:29:21.884Z,17.40
2023-05-21T09:32:13.442Z,17.50
2023-05-21T09:35:11.635Z,17.50
2023-05-21T09:38:02.014Z,17.50
2023-05-21T09:40:56.380Z,17.50
2023-05-21T09:43:48.245Z,17.70
2023-05-21T09:46:43.823Z,17.60
2023-05-21T09:49:35.309Z,17.50
2023-05-21T09:52:29.193Z,17.50
2023-05-21T09:55:23.704Z,17.50
2023-05-21T09:58:15.126Z,17.60
2023-05-21T10:01:06.606Z,17.70
2023-05-21T10:04:02.170Z,17.80
2023-05-21T10:06:54.124Z,17.90
2023-05-21T10:09:46.259Z,17.90
2023-05-21T10:12:38.309Z,18.00
2023-05-21T10:15:32.406Z,18.00
2023-05-21T10:18:25.253Z,18.00
2023-05-21T10:21:17.679Z,18.10
2023-05-21T10:24:09.940Z,18.00
2023-05-21T10:27:02.094Z,18.10
2023-05-21T10:29:55.679Z,18.10
2023-05-21T10:32:48.598Z,17.90
2023-05-21T10:35:41.752Z,17.90
2023-05-21T10:38:35.096Z,17.90
2023-05-21T10:41:28.268Z,17.80
2023-05-21T10:44:25.097Z,17.80
2023-05-21T10:47:41.300Z,17.80
2023-05-21T10:50:42.449Z,17.80
2023-05-21T10:53:39.556Z,17.90
2023-05-21T10:56:35.153Z,17.90
2023-05-21T10:59:35.053Z,17.90
2023-05-21T11:02:28.954Z,17.90
2023-05-21T11:05:38.422Z,17.90
2023-05-21T11:08:32.024Z,18.10
2023-05-21T11:11:45.212Z,18.20
2023-05-21T11:14:39.937Z,18.30
2023-05-21T11:17:43.899Z,18.30
2023-05-21T11:20:37.844Z,18.40
2023-05-21T11:23:39.112Z,18.40
2023-05-21T11:26:33.668Z,18.60
2023-05-21T11:29:32.068Z,18.70
2023-05-21T11:32:24.426Z,18.80
2023-05-21T11:35:17.435Z,18.90
2023-05-21T11:38:11.160Z,19.00
2023-05-21T11:41:05.826Z,19.00
2023-05-21T11:44:04.205Z,19.10
2023-05-21T11:46:56.189Z,19.20
2023-05-21T11:49:48.368Z,19.10
2023-05-21T11:52:41.410Z,19.20
2023-05-21T11:55:33.433Z,19.20
2023-05-21T11:58:25.144Z,19.20
2023-05-21T12:01:25.154Z,19.40
2023-05-21T12:04:16.374Z,19.60
2023-05-21T12:07:08.540Z,19.90
2023-05-21T12:09:59.955Z,20.10
2023-05-21T12:12:56.324Z,20.40
2023-05-21T12:15:44.060Z,20.30
2023-05-21T12:18:36.314Z,20.50
2023-05-21T12:21:29.617Z,20.80
2023-05-21T12:24:21.533Z,21.00
2023-05-21T12:27:13.963Z,21.10
2023-05-21T12:30:06.533Z,21.30
2023-05-21T12:33:02.555Z,21.30
2023-05-21T12:35:54.466Z,21.40
2023-05-21T12:38:47.785Z,21.20
2023-05-21T12:41:39.371Z,20.90
2023-05-21T12:44:34.859Z,20.70
2023-05-21T12:47:27.812Z,20.60
2023-05-21T12:50:22.112Z,20.90
2023-05-21T12:53:13.215Z,21.30
2023-05-21T12:56:12.075Z,21.60
2023-05-21T12:59:03.582Z,21.80
2023-05-21T13:01:55.709Z,22.00
2023-05-21T13:04:47.555Z,22.00
2023-05-21T13:07:41.139Z,22.10
2023-05-21T13:10:32.681Z,22.10
2023-05-21T13:13:24.394Z,22.30
2023-05-21T13:16:16.578Z,22.50
2023-05-21T13:19:08.151Z,22.50
2023-05-21T13:21:59.527Z,22.60
2023-05-21T13:24:50.970Z,22.40
2023-05-21T13:27:42.673Z,22.40
2023-05-21T13:30:34.152Z,22.20
2023-05-21T13:33:27.300Z,22.10
2023-05-21T13:36:18.969Z,22.20
2023-05-21T13:39:10.263Z,22.30
2023-05-21T13:42:01.827Z,22.30
2023-05-21T13:44:54.561Z,22.30
2023-05-21T13:47:48.208Z,22.30
2023-05-21T13:50:39.987Z,22.40
2023-05-21T13:53:31.600Z,22.30
2023-05-21T13:56:23.545Z,22.60
2023-05-21T13:59:15.072Z,22.90
2023-05-21T14:02:07.203Z,22.80
2023-05-21T14:04:58.896Z,22.80
2023-05-21T14:07:51.602Z,22.90
2023-05-21T14:10:43.424Z,22.80
2023-05-21T14:13:35.160Z,23.00
2023-05-21T14:19:07.102Z,23.10
2023-05-21T14:21:59.989Z,23.10
2023-05-21T14:24:51.386Z,23.40
2023-05-21T14:30:22.143Z,23.80
2023-05-21T14:33:13.908Z,23.60
2023-05-21T14:38:44.563Z,23.30
2023-05-21T14:44:15.088Z,23.20
2023-05-21T14:49:44.540Z,23.20
2023-05-21T14:52:37.746Z,23.40
2023-05-21T14:58:08.853Z,23.40
2023-05-21T15:01:00.319Z,23.50
2023-05-21T15:03:52.059Z,23.10
2023-05-21T15:06:43.884Z,22.80
2023-05-21T15:09:35.508Z,23.10
2023-05-21T15:12:27.510Z,23.10
2023-05-21T15:15:20.637Z,23.00
2023-05-21T15:18:12.424Z,23.00
2023-05-21T15:21:03.844Z,22.90
2023-05-21T15:23:55.085Z,23.00
2023-05-21T15:26:46.807Z,23.10
2023-05-21T15:29:37.999Z,23.00
2023-05-21T15:32:29.518Z,23.30
2023-05-21T15:35:21.102Z,23.80
2023-05-21T15:38:12.797Z,23.90
2023-05-21T15:41:04.382Z,24.00
2023-05-21T15:43:56.594Z,24.30
2023-05-21T15:46:49.504Z,24.90
2023-05-21T15:49:41.001Z,25.70
2023-05-21T15:52:32.669Z,26.30
2023-05-21T15:55:24.120Z,26.70
2023-05-21T16:00:55.096Z,29.50
2023-05-21T16:06:25.930Z,28.10
2023-05-21T16:09:20.141Z,27.60
2023-05-21T16:12:11.493Z,27.60
2023-05-21T16:15:02.948Z,27.80
2023-05-21T16:17:54.544Z,27.60
2023-05-21T16:23:25.793Z,27.20
2023-05-21T16:26:20.191Z,26.90
2023-05-21T16:29:11.699Z,27.10
2023-05-21T16:32:03.196Z,26.40
2023-05-21T16:34:54.610Z,26.50
2023-05-21T16:37:46.439Z,26.50
2023-05-21T16:40:39.487Z,26.70
2023-05-21T16:43:30.987Z,26.60
2023-05-21T16:46:22.545Z,26.60
2023-05-21T16:49:13.603Z,26.10
2023-05-21T16:52:05.409Z,26.60
2023-05-21T16:54:56.867Z,26.80
2023-05-21T16:57:48.358Z,26.50
2023-05-21T17:00:39.743Z,26.70
2023-05-21T17:03:32.896Z,26.90
2023-05-21T17:06:25.131Z,26.30
2023-05-21T17:09:18.690Z,26.40
2023-05-21T17:12:11.467Z,26.20
2023-05-21T17:15:03.655Z,25.50
2023-05-21T17:17:55.819Z,25.60
2023-05-21T17:20:47.161Z,25.90
2023-05-21T17:23:38.738Z,25.70
2023-05-21T17:26:30.033Z,25.50
2023-05-21T17:29:21.287Z,25.20
2023-05-21T17:32:13.344Z,25.00
2023-05-21T17:35:05.060Z,24.80
2023-05-21T17:40:39.145Z,24.10
2023-05-21T17:43:32.174Z,23.60
2023-05-21T17:46:23.651Z,23.40
2023-05-21T17:49:15.202Z,23.20
2023-05-21T17:52:07.605Z,23.50
2023-05-21T17:54:59.082Z,23.30
2023-05-21T17:57:51.272Z,23.30
2023-05-21T18:00:42.466Z,23.60
2023-05-21T18:03:34.223Z,23.50
2023-05-21T18:06:25.612Z,22.80
2023-05-21T18:11:56.317Z,22.30
2023-05-21T18:14:48.081Z,22.20
2023-05-21T18:17:39.343Z,22.00
2023-05-21T18:23:12.170Z,21.60
2023-05-21T18:26:03.360Z,21.50
2023-05-21T18:28:56.071Z,21.40
2023-05-21T18:31:47.675Z,21.30
2023-05-21T18:48:03.749Z,21.10
2023-05-21T18:50:55.440Z,20.50
2023-05-21T18:53:47.131Z,20.50
2023-05-21T18:56:39.232Z,20.40
2023-05-21T18:59:31.492Z,20.50
2023-05-21T19:02:24.263Z,20.50
2023-05-21T19:05:16.224Z,20.40
2023-05-21T19:08:08.215Z,20.20
2023-05-21T19:10:59.468Z,20.10
2023-05-21T19:13:51.044Z,20.10
2023-05-21T19:16:42.605Z,19.80
2023-05-21T19:19:34.220Z,19.70
2023-05-21T19:22:27.233Z,19.60
2023-05-21T19:25:19.137Z,19.60
2023-05-21T19:28:10.344Z,19.60
2023-05-21T19:31:01.942Z,19.50
2023-05-21T19:33:54.004Z,19.40
2023-05-21T19:36:53.414Z,19.30
2023-05-21T19:39:41.316Z,19.20
2023-05-21T19:42:32.715Z,19.20
2023-05-21T19:45:25.619Z,19.10
2023-05-21T19:48:17.201Z,18.90
2023-05-21T19:51:08.455Z,18.80
2023-05-21T19:53:59.755Z,18.70
2023-05-21T19:56:51.642Z,18.60
2023-05-21T19:59:42.943Z,18.70
2023-05-21T20:02:34.862Z,18.50
2023-05-21T20:05:25.976Z,18.40
2023-05-21T20:08:17.485Z,18.40
2023-05-21T20:11:08.862Z,18.30
2023-05-21T20:14:02.072Z,18.30
2023-05-21T20:16:53.764Z,18.30
2023-05-21T20:19:46.405Z,18.30
2023-05-21T20:22:37.911Z,18.20
2023-05-21T20:25:29.155Z,18.20
2023-05-21T20:31:11.953Z,18.20
2023-05-21T20:36:42.582Z,18.20
2023-05-21T20:39:33.978Z,18.10
2023-05-21T20:42:26.566Z,18.00
2023-05-21T20:45:17.861Z,17.80
2023-05-21T20:48:14.302Z,17.50
2023-05-21T20:51:05.440Z,17.50
2023-05-21T20:53:57.306Z,17.60
2023-05-21T20:56:50.170Z,17.60
2023-05-21T20:59:41.372Z,17.60
2023-05-21T21:02:32.888Z,17.70
2023-05-21T21:05:24.697Z,17.60
2023-05-21T21:08:16.991Z,17.50
2023-05-21T21:11:08.167Z,17.50
2023-05-21T21:13:59.727Z,17.50
2023-05-21T21:16:52.040Z,17.50
2023-05-21T21:19:43.259Z,17.50
2023-05-21T21:22:34.937Z,17.40
2023-05-21T21:25:26.239Z,17.30
2023-05-21T21:28:17.873Z,17.30
2023-05-21T21:31:09.262Z,17.20
2023-05-21T21:34:00.848Z,17.20
2023-05-21T21:36:51.989Z,17.10
2023-05-21T21:39:43.236Z,17.00
2023-05-21T21:42:34.809Z,17.10
2023-05-21T21:45:26.340Z,16.90
2023-05-21T21:48:17.713Z,16.80
2023-05-21T21:51:09.176Z,16.70
2023-05-21T21:54:00.723Z,16.70
2023-05-21T21:56:52.054Z,16.70
2023-05-21T21:59:43.310Z,16.80
2023-05-21T22:02:35.192Z,16.90
2023-05-21T22:05:26.683Z,16.80
2023-05-21T22:08:18.531Z,16.90
2023-05-21T22:11:09.912Z,16.90
2023-05-21T22:14:01.486Z,17.00
2023-05-21T22:16:55.542Z,16.90
2023-05-21T22:19:47.857Z,16.90
2023-05-21T22:22:39.072Z,16.90
2023-05-21T22:25:30.314Z,16.80
2023-05-21T22:28:23.018Z,16.80
2023-05-21T22:31:14.759Z,16.70
2023-05-21T22:34:06.137Z,16.70
2023-05-21T22:39:37.161Z,16.50
2023-05-21T22:45:08.896Z,16.40
2023-05-21T22:48:03.499Z,16.50
2023-05-21T22:50:54.954Z,16.40
2023-05-21T22:53:46.201Z,16.40
2023-05-21T22:56:37.706Z,16.40
2023-05-21T22:59:30.928Z,16.50
2023-05-21T23:02:22.352Z,16.40
2023-05-21T23:05:13.946Z,16.10
2023-05-21T23:08:05.672Z,16.10
2023-05-21T23:10:57.143Z,16.20
2023-05-21T23:13:48.697Z,16.20
2023-05-21T23:16:42.155Z,16.20
2023-05-21T23:19:33.679Z,16.20
2023-05-21T23:22:25.175Z,16.10
2023-05-21T23:27:56.055Z,16.10
2023-05-21T23:30:48.255Z,16.10
2023-05-21T23:33:39.578Z,16.10
2023-05-21T23:36:31.287Z,16.00
2023-05-21T23:39:22.724Z,15.90
2023-05-21T23:42:14.526Z,15.90
2023-05-21T23:45:07.140Z,15.80
2023-05-21T23:47:58.967Z,15.70
2023-05-21T23:50:50.185Z,15.60
2023-05-21T23:53:41.665Z,15.60
2023-05-21T23:56:33.276Z,15.60
2023-05-21T23:59:24.493Z,15.70
